Time;durP1;ratioP1;P1;durP2;ratioP2;P2;SDS_P1;SDS_P2;PMS_P1;PMS_P2;Temp;Humidity;BMP_temperature;BMP_pressure;BME280_temperature;BME280_humidity;BME280_pressure;Samples;Min_cycle;Max_cycle;Signal;HPM_P1;HPM_P2
2023/09/25 00:00:47;;;;;;;1.35;1.30;;;13.50;99.90;;;;;;5038245;28;20199;-71
2023/09/25 00:03:14;;;;;;;1.10;1.10;;;13.50;99.90;;;;;;5036287;28;20375;-71
2023/09/25 00:05:41;;;;;;;1.15;1.05;;;13.50;99.90;;;;;;5038687;28;20235;-72
2023/09/25 00:08:08;;;;;;;1.23;1.20;;;13.40;99.90;;;;;;5039057;28;20203;-71
2023/09/25 00:10:36;;;;;;;1.17;1.17;;;13.40;99.90;;;;;;5037335;28;20711;-72
2023/09/25 00:13:05;;;;;;;1.15;1.15;;;13.50;99.90;;;;;;5040220;28;20215;-72
2023/09/25 00:15:32;;;;;;;1.10;1.10;;;13.50;99.90;;;;;;5039256;28;20941;-72
2023/09/25 00:17:59;;;;;;;1.15;1.15;;;13.50;99.90;;;;;;5021442;28;20196;-72
2023/09/25 00:20:26;;;;;;;1.05;1.05;;;13.50;99.90;;;;;;5025459;28;20286;-72
2023/09/25 00:22:53;;;;;;;1.10;1.10;;;13.50;99.90;;;;;;5037700;28;22036;-72
2023/09/25 00:25:22;;;;;;;1.65;1.33;;;13.40;99.90;;;;;;5039622;28;20214;-72
2023/09/25 00:27:50;;;;;;;1.20;1.10;;;13.40;99.90;;;;;;5038641;28;20213;-73
2023/09/25 00:30:18;;;;;;;1.38;1.30;;;13.40;99.90;;;;;;5040113;28;20253;-70
2023/09/25 00:32:45;;;;;;;1.05;1.05;;;13.40;99.90;;;;;;5037230;28;20206;-70
2023/09/25 00:35:13;;;;;;;1.00;1.00;;;13.30;99.90;;;;;;5037245;28;20264;-70
2023/09/25 00:37:40;;;;;;;1.20;1.20;;;13.30;99.90;;;;;;5038815;28;20208;-70
2023/09/25 00:40:13;;;;;;;1.30;1.20;;;13.30;99.90;;;;;;5037896;28;20245;-70
2023/09/25 00:42:41;;;;;;;1.50;1.40;;;13.30;99.90;;;;;;5037259;28;20329;-70
2023/09/25 00:45:09;;;;;;;1.13;1.13;;;13.20;99.90;;;;;;5040918;28;20263;-70
2023/09/25 00:47:41;;;;;;;1.48;1.38;;;13.20;99.90;;;;;;5035636;28;20200;-70
2023/09/25 00:50:09;;;;;;;1.63;1.42;;;13.20;99.90;;;;;;5039374;28;20282;-70
2023/09/25 00:52:37;;;;;;;1.40;1.38;;;13.10;99.90;;;;;;5020627;28;20195;-70
2023/09/25 00:55:04;;;;;;;1.60;1.50;;;13.10;99.90;;;;;;5036150;28;20309;-70
2023/09/25 00:57:34;;;;;;;1.23;1.20;;;13.00;99.90;;;;;;5037992;28;20207;-70
2023/09/25 01:00:02;;;;;;;1.20;1.20;;;13.00;99.90;;;;;;5036708;28;20695;-70
2023/09/25 01:02:31;;;;;;;1.20;1.20;;;13.00;99.90;;;;;;5020677;28;23177;-70
2023/09/25 01:05:00;;;;;;;1.25;1.25;;;13.00;99.90;;;;;;5021500;28;20234;-71
2023/09/25 01:07:27;;;;;;;1.40;1.30;;;13.00;99.90;;;;;;5033116;28;20207;-70
2023/09/25 01:10:14;;;;;;;1.10;1.10;;;13.00;99.90;;;;;;5046324;28;20226;-72
2023/09/25 01:12:41;;;;;;;1.52;1.40;;;13.00;99.90;;;;;;5046496;28;20199;-70
2023/09/25 01:15:09;;;;;;;1.45;1.35;;;12.90;99.90;;;;;;5040216;28;20288;-71
2023/09/25 01:17:36;;;;;;;1.20;1.10;;;12.90;99.90;;;;;;5022583;28;20226;-71
2023/09/25 01:20:15;;;;;;;1.15;1.15;;;12.90;99.90;;;;;;5037151;28;20202;-72
2023/09/25 01:22:45;;;;;;;1.45;1.35;;;12.80;99.90;;;;;;5035874;28;20191;-71
2023/09/25 01:25:12;;;;;;;1.30;1.20;;;12.80;99.90;;;;;;5033695;28;20849;-71
2023/09/25 01:27:39;;;;;;;1.60;1.50;;;12.80;99.90;;;;;;5032716;28;20191;-71
2023/09/25 01:30:08;;;;;;;1.30;1.20;;;12.70;99.90;;;;;;5039126;28;20836;-71
2023/09/25 01:32:37;;;;;;;1.52;1.42;;;12.70;99.90;;;;;;5035176;28;20202;-71
2023/09/25 01:35:05;;;;;;;1.60;1.50;;;12.70;99.90;;;;;;5036596;28;20219;-71
2023/09/25 01:37:32;;;;;;;2.10;1.55;;;12.80;99.90;;;;;;5019105;28;20252;-71
2023/09/25 01:40:01;;;;;;;1.40;1.30;;;12.80;99.90;;;;;;5038717;28;20256;-71
2023/09/25 01:42:28;;;;;;;1.52;1.42;;;12.80;99.90;;;;;;5033899;28;20571;-71
2023/09/25 01:44:55;;;;;;;1.13;1.13;;;12.70;99.90;;;;;;5035579;28;21124;-71
2023/09/25 01:47:22;;;;;;;1.60;1.50;;;12.70;99.90;;;;;;5038026;28;20206;-71
2023/09/25 01:49:49;;;;;;;1.25;1.25;;;12.70;99.90;;;;;;5035099;28;20199;-72
2023/09/25 01:52:17;;;;;;;1.50;1.40;;;12.60;99.90;;;;;;5037675;28;20203;-71
2023/09/25 01:54:44;;;;;;;1.50;1.40;;;12.60;99.90;;;;;;5036480;28;20215;-71
2023/09/25 01:57:12;;;;;;;1.35;1.35;;;12.60;99.90;;;;;;5036127;28;20287;-71
2023/09/25 01:59:39;;;;;;;1.27;1.27;;;12.70;99.90;;;;;;5038246;28;20740;-71
2023/09/25 02:02:07;;;;;;;1.15;1.08;;;12.60;99.90;;;;;;5033578;28;20226;-71
2023/09/25 02:04:34;;;;;;;1.58;1.48;;;12.60;99.90;;;;;;5031348;28;20630;-71
2023/09/25 02:07:01;;;;;;;1.35;1.25;;;12.50;99.90;;;;;;5038018;28;20281;-71
2023/09/25 02:09:28;;;;;;;1.40;1.30;;;12.50;99.90;;;;;;5037681;28;20209;-71
2023/09/25 02:11:55;;;;;;;1.10;1.10;;;12.50;99.90;;;;;;5013888;28;20195;-70
2023/09/25 02:14:24;;;;;;;1.50;1.40;;;12.50;99.90;;;;;;5036589;28;20227;-70
2023/09/25 02:16:51;;;;;;;1.10;1.10;;;12.50;99.90;;;;;;5036783;28;20227;-71
2023/09/25 02:19:18;;;;;;;1.02;1.02;;;12.60;99.90;;;;;;5032898;28;20203;-71
2023/09/25 02:21:45;;;;;;;1.20;1.13;;;12.50;99.90;;;;;;5036209;28;20573;-71
2023/09/25 02:24:12;;;;;;;1.50;1.38;;;12.60;99.90;;;;;;5039802;28;20244;-71
2023/09/25 02:26:39;;;;;;;1.00;1.00;;;12.60;99.90;;;;;;5039122;28;20219;-72
2023/09/25 02:29:06;;;;;;;1.52;1.42;;;12.60;99.90;;;;;;5036141;28;20203;-72
2023/09/25 02:31:35;;;;;;;1.30;1.30;;;12.50;99.90;;;;;;5036942;28;20203;-72
2023/09/25 02:34:02;;;;;;;2.25;1.33;;;12.50;99.90;;;;;;5034145;28;20892;-71
2023/09/25 02:36:29;;;;;;;1.23;1.23;;;12.50;99.90;;;;;;5025274;28;20697;-71
2023/09/25 02:38:56;;;;;;;1.20;1.20;;;12.50;99.90;;;;;;5045973;28;20289;-71
2023/09/25 02:41:23;;;;;;;1.10;1.10;;;12.50;99.90;;;;;;5042780;28;20273;-72
2023/09/25 02:43:50;;;;;;;1.30;1.20;;;12.50;99.90;;;;;;5033484;28;20192;-71
2023/09/25 02:46:18;;;;;;;1.48;1.38;;;12.40;99.90;;;;;;5033385;28;20284;-71
2023/09/25 02:48:46;;;;;;;1.30;1.30;;;12.40;99.90;;;;;;5034687;28;20202;-71
2023/09/25 02:51:13;;;;;;;1.40;1.30;;;12.30;99.90;;;;;;5037193;28;20207;-71
2023/09/25 02:53:40;;;;;;;1.65;1.55;;;12.30;99.90;;;;;;5035416;28;20881;-70
2023/09/25 02:56:07;;;;;;;1.42;1.33;;;12.30;99.90;;;;;;5035801;28;20222;-70
2023/09/25 02:58:34;;;;;;;1.40;1.40;;;12.20;99.90;;;;;;5034509;28;20273;-71
2023/09/25 03:01:02;;;;;;;1.42;1.42;;;12.20;99.90;;;;;;5037154;28;20203;-71
2023/09/25 03:03:30;;;;;;;1.60;1.50;;;12.20;99.90;;;;;;5024563;28;20206;-71
2023/09/25 03:05:58;;;;;;;1.10;1.10;;;12.20;99.90;;;;;;5036567;28;20700;-71
2023/09/25 03:08:25;;;;;;;1.23;1.23;;;12.10;99.90;;;;;;5035675;28;20203;-71
2023/09/25 03:10:52;;;;;;;1.10;1.10;;;12.10;99.90;;;;;;5037865;28;20907;-71
2023/09/25 03:13:19;;;;;;;1.33;1.33;;;12.10;99.90;;;;;;5038335;28;20207;-71
2023/09/25 03:15:46;;;;;;;1.35;1.25;;;12.10;99.90;;;;;;5038711;28;20288;-71
2023/09/25 03:18:14;;;;;;;1.50;1.40;;;12.10;99.90;;;;;;5043353;28;20199;-71
2023/09/25 03:20:41;;;;;;;1.40;1.40;;;12.00;99.90;;;;;;5038908;28;20203;-71
2023/09/25 03:23:10;;;;;;;1.52;1.42;;;12.00;99.90;;;;;;5040939;28;20737;-71
2023/09/25 03:25:37;;;;;;;1.70;1.60;;;12.00;99.90;;;;;;5037154;28;20215;-71
2023/09/25 03:28:04;;;;;;;1.40;1.40;;;12.00;99.90;;;;;;5039779;28;20211;-71
2023/09/25 03:30:31;;;;;;;1.48;1.40;;;12.00;99.90;;;;;;5038275;28;20198;-71
2023/09/25 03:32:58;;;;;;;1.60;1.50;;;12.00;99.90;;;;;;5041701;28;20725;-71
2023/09/25 03:35:25;;;;;;;1.73;1.63;;;12.00;99.90;;;;;;5038424;28;20272;-71
2023/09/25 03:37:53;;;;;;;1.20;1.20;;;11.80;99.90;;;;;;5039090;28;20238;-70
2023/09/25 03:40:21;;;;;;;1.30;1.30;;;11.80;99.90;;;;;;5040160;28;20231;-71
2023/09/25 03:42:48;;;;;;;1.30;1.30;;;11.80;99.90;;;;;;5037025;28;20839;-71
2023/09/25 03:45:15;;;;;;;1.48;1.38;;;11.90;99.90;;;;;;5037904;28;20199;-71
2023/09/25 03:47:42;;;;;;;2.47;2.28;;;11.90;99.90;;;;;;5032260;28;20195;-72
2023/09/25 03:50:10;;;;;;;1.45;1.35;;;11.90;99.90;;;;;;5017482;28;20907;-71
2023/09/25 03:52:37;;;;;;;1.40;1.38;;;11.90;99.90;;;;;;5038071;28;20292;-70
2023/09/25 03:55:05;;;;;;;1.40;1.40;;;11.90;99.90;;;;;;5018467;28;20222;-70
2023/09/25 03:57:34;;;;;;;1.52;1.50;;;11.90;99.90;;;;;;5037275;28;22009;-71
2023/09/25 04:00:01;;;;;;;1.20;1.20;;;11.90;99.90;;;;;;5040307;28;20222;-71
2023/09/25 04:02:28;;;;;;;1.52;1.45;;;11.80;99.90;;;;;;5034200;28;20280;-70
2023/09/25 04:04:55;;;;;;;1.30;1.30;;;11.80;99.90;;;;;;5035511;28;20231;-70
2023/09/25 04:07:23;;;;;;;1.50;1.40;;;11.80;99.90;;;;;;5038410;28;20214;-71
2023/09/25 04:09:50;;;;;;;1.45;1.38;;;11.70;99.90;;;;;;5040271;28;20203;-71
2023/09/25 04:12:19;;;;;;;1.50;1.40;;;11.70;99.90;;;;;;5040502;28;20731;-71
2023/09/25 04:14:47;;;;;;;1.63;1.27;;;11.70;99.90;;;;;;5020101;28;20219;-71
2023/09/25 04:17:15;;;;;;;1.40;1.30;;;11.70;99.90;;;;;;5039278;28;20481;-71
2023/09/25 04:19:43;;;;;;;1.30;1.30;;;11.70;99.90;;;;;;5039490;28;20284;-71
2023/09/25 04:22:11;;;;;;;1.60;1.50;;;11.70;99.90;;;;;;5034433;28;20302;-72
2023/09/25 04:24:38;;;;;;;1.35;1.35;;;11.70;99.90;;;;;;5039664;28;20199;-71
2023/09/25 04:27:05;;;;;;;1.50;1.40;;;11.70;99.90;;;;;;5037488;28;20223;-71
2023/09/25 04:29:32;;;;;;;1.60;1.50;;;11.60;99.90;;;;;;5036109;28;20258;-70
2023/09/25 04:32:03;;;;;;;1.33;1.33;;;11.60;99.90;;;;;;5020940;28;20216;-70
2023/09/25 04:34:30;;;;;;;1.52;1.42;;;11.60;99.90;;;;;;5035123;28;20289;-70
2023/09/25 04:36:58;;;;;;;1.50;1.40;;;11.60;99.90;;;;;;5035662;28;20227;-71
2023/09/25 04:39:26;;;;;;;1.60;1.50;;;11.50;99.90;;;;;;5036243;28;20227;-71
2023/09/25 04:41:54;;;;;;;1.70;1.60;;;11.50;99.90;;;;;;5034327;28;20304;-71
2023/09/25 04:44:21;;;;;;;1.50;1.30;;;11.50;99.90;;;;;;5036792;28;20192;-71
2023/09/25 04:46:48;;;;;;;1.52;1.42;;;11.40;99.90;;;;;;5033622;28;20222;-71
2023/09/25 04:49:18;;;;;;;1.63;1.52;;;11.40;99.90;;;;;;5034520;28;20723;-71
2023/09/25 04:51:46;;;;;;;1.52;1.45;;;11.50;99.90;;;;;;5033266;28;20219;-72
2023/09/25 04:54:13;;;;;;;1.30;1.30;;;11.40;99.90;;;;;;5031440;28;20206;-71
2023/09/25 04:56:40;;;;;;;1.38;1.27;;;11.40;99.90;;;;;;5036796;28;20895;-71
2023/09/25 04:59:08;;;;;;;1.58;1.48;;;11.40;99.90;;;;;;5032271;28;20223;-71
2023/09/25 05:01:35;;;;;;;1.80;1.70;;;11.40;99.90;;;;;;5037661;28;20215;-71
2023/09/25 05:04:02;;;;;;;1.50;1.40;;;11.30;99.90;;;;;;5034719;28;20232;-70
2023/09/25 05:06:30;;;;;;;1.42;1.33;;;11.30;99.90;;;;;;5017980;28;20258;-70
2023/09/25 05:08:58;;;;;;;1.58;1.48;;;11.30;99.90;;;;;;5036099;28;20288;-70
2023/09/25 05:11:24;;;;;;;1.58;1.48;;;11.30;99.90;;;;;;5039747;28;20253;-70
2023/09/25 05:13:51;;;;;;;1.63;1.52;;;11.30;99.90;;;;;;5039144;28;20208;-70
2023/09/25 05:16:18;;;;;;;1.50;1.40;;;11.30;99.90;;;;;;5039168;28;20231;-70
2023/09/25 05:18:45;;;;;;;1.80;1.70;;;11.20;99.90;;;;;;5039917;28;20203;-70
2023/09/25 05:21:12;;;;;;;1.55;1.45;;;11.20;99.90;;;;;;5037544;28;20246;-71
2023/09/25 05:23:41;;;;;;;1.50;1.40;;;11.20;99.90;;;;;;5039215;28;20269;-71
2023/09/25 05:26:08;;;;;;;1.40;1.40;;;11.20;99.90;;;;;;5035296;28;20226;-70
2023/09/25 05:28:35;;;;;;;1.52;1.42;;;11.30;99.90;;;;;;5033034;28;20225;-70
2023/09/25 05:31:02;;;;;;;1.30;1.20;;;11.30;99.90;;;;;;5036369;28;20207;-70
2023/09/25 05:33:29;;;;;;;1.55;1.45;;;11.20;99.90;;;;;;5039577;28;20203;-70
2023/09/25 05:35:56;;;;;;;1.85;1.75;;;11.30;99.90;;;;;;5039298;28;20250;-70
2023/09/25 05:38:23;;;;;;;1.67;1.58;;;11.30;99.90;;;;;;5035297;28;20208;-70
2023/09/25 05:40:51;;;;;;;1.45;1.38;;;11.30;99.90;;;;;;5038897;28;20685;-71
2023/09/25 05:43:19;;;;;;;1.55;1.45;;;11.30;99.90;;;;;;5037897;28;20200;-70
2023/09/25 05:45:47;;;;;;;1.50;1.40;;;11.30;99.90;;;;;;5033497;28;20228;-70
2023/09/25 05:48:14;;;;;;;2.20;1.52;;;11.30;99.90;;;;;;5032530;28;20202;-70
2023/09/25 05:50:41;;;;;;;1.90;1.80;;;11.30;99.90;;;;;;5032898;28;20199;-70
2023/09/25 05:53:08;;;;;;;1.30;1.30;;;11.40;99.90;;;;;;5019017;28;20203;-70
2023/09/25 05:55:35;;;;;;;3.17;2.38;;;11.40;99.90;;;;;;5031845;28;20254;-70
2023/09/25 05:58:04;;;;;;;1.60;1.50;;;11.40;99.90;;;;;;5032502;28;20207;-70
2023/09/25 06:00:32;;;;;;;1.70;1.60;;;11.40;99.90;;;;;;5038755;28;20898;-70
2023/09/25 06:03:01;;;;;;;1.75;1.45;;;11.50;99.90;;;;;;5035778;28;20203;-71
2023/09/25 06:05:28;;;;;;;1.80;1.60;;;11.90;99.90;;;;;;5036561;28;20269;-71
2023/09/25 06:07:55;;;;;;;1.60;1.50;;;12.50;99.90;;;;;;5036222;28;20293;-71
2023/09/25 06:10:23;;;;;;;1.60;1.50;;;13.20;99.90;;;;;;5037432;28;20264;-71
2023/09/25 06:12:50;;;;;;;1.60;1.50;;;13.80;99.90;;;;;;5035207;28;20261;-71
2023/09/25 06:15:19;;;;;;;1.70;1.60;;;14.40;99.90;;;;;;5033683;28;20222;-71
2023/09/25 06:17:47;;;;;;;1.33;1.27;;;14.90;99.90;;;;;;5032444;28;20199;-71
2023/09/25 06:20:16;;;;;;;1.58;1.48;;;15.40;99.90;;;;;;5035030;28;20205;-71
2023/09/25 06:22:44;;;;;;;1.60;1.50;;;15.80;99.90;;;;;;5033191;28;20195;-71
2023/09/25 06:25:16;;;;;;;1.50;1.40;;;16.20;99.90;;;;;;5033015;28;20221;-71
2023/09/25 06:27:44;;;;;;;1.70;1.60;;;16.40;99.90;;;;;;5031879;28;20211;-71
2023/09/25 06:30:12;;;;;;;1.40;1.30;;;16.60;99.90;;;;;;5028826;28;20211;-71
2023/09/25 06:32:41;;;;;;;2.10;1.60;;;16.60;99.90;;;;;;5015277;28;20218;-71
2023/09/25 06:35:09;;;;;;;1.73;1.63;;;16.40;99.90;;;;;;5038598;28;20211;-70
2023/09/25 06:37:36;;;;;;;1.50;1.40;;;16.30;99.90;;;;;;5040375;28;20237;-70
2023/09/25 06:40:09;;;;;;;1.58;1.23;;;16.40;99.90;;;;;;5039751;28;20346;-71
2023/09/25 06:42:36;;;;;;;1.50;1.40;;;16.60;99.90;;;;;;5038184;28;20587;-70
2023/09/25 06:45:04;;;;;;;1.58;1.48;;;16.90;99.90;;;;;;5042292;28;20252;-70
2023/09/25 06:47:33;;;;;;;1.40;1.30;;;17.10;99.90;;;;;;5039871;28;20203;-70
2023/09/25 06:50:01;;;;;;;2.97;1.70;;;17.40;99.90;;;;;;5020727;28;20231;-71
2023/09/25 06:52:29;;;;;;;1.75;1.55;;;17.50;99.90;;;;;;5040204;28;20637;-71
2023/09/25 06:54:56;;;;;;;3.95;3.17;;;17.70;99.90;;;;;;5023553;28;20243;-70
2023/09/25 06:57:24;;;;;;;2.13;1.88;;;17.80;99.90;;;;;;5039234;28;20235;-71
2023/09/25 06:59:51;;;;;;;1.80;1.70;;;17.90;99.90;;;;;;5045387;28;20199;-70
2023/09/25 07:02:18;;;;;;;2.67;2.10;;;18.20;99.90;;;;;;5042645;28;20207;-70
2023/09/25 07:04:47;;;;;;;2.15;1.67;;;18.50;99.90;;;;;;5019673;28;20204;-70
2023/09/25 07:07:15;;;;;;;1.73;1.63;;;18.50;99.90;;;;;;5019718;28;20218;-70
2023/09/25 07:09:42;;;;;;;1.33;1.23;;;18.30;99.90;;;;;;5034477;28;20273;-71
2023/09/25 07:12:12;;;;;;;2.03;1.63;;;18.30;99.90;;;;;;5033618;28;20214;-71
2023/09/25 07:14:39;;;;;;;1.90;1.45;;;18.00;99.90;;;;;;5038395;28;20268;-72
2023/09/25 07:17:07;;;;;;;1.40;1.30;;;18.20;99.90;;;;;;5037636;28;20252;-71
2023/09/25 07:19:34;;;;;;;1.60;1.20;;;18.40;99.90;;;;;;5037459;28;20574;-71
2023/09/25 07:22:01;;;;;;;1.38;1.20;;;18.70;99.90;;;;;;5020685;28;20661;-72
2023/09/25 07:24:29;;;;;;;1.70;1.60;;;19.00;99.90;;;;;;5041951;28;20206;-71
2023/09/25 07:26:56;;;;;;;1.38;1.27;;;19.10;99.90;;;;;;5042289;28;20222;-71
2023/09/25 07:29:23;;;;;;;2.40;1.30;;;18.70;99.90;;;;;;5039772;28;20225;-71
2023/09/25 07:31:51;;;;;;;1.50;1.35;;;18.50;99.90;;;;;;5039527;28;20202;-72
2023/09/25 07:34:19;;;;;;;2.38;1.42;;;18.30;99.90;;;;;;5023088;28;20271;-71
2023/09/25 07:36:46;;;;;;;2.70;1.40;;;18.40;99.90;;;;;;5042515;28;20222;-71
2023/09/25 07:39:13;;;;;;;1.83;1.45;;;18.70;99.90;;;;;;5021696;28;20264;-72
2023/09/25 07:41:41;;;;;;;1.50;1.40;;;18.90;99.90;;;;;;5023771;28;20679;-71
2023/09/25 07:44:12;;;;;;;1.40;1.30;;;18.90;99.90;;;;;;5040341;28;20289;-71
2023/09/25 07:46:39;;;;;;;1.50;1.40;;;18.90;99.90;;;;;;5037684;28;20227;-71
2023/09/25 07:49:07;;;;;;;1.95;1.20;;;18.90;99.90;;;;;;5040687;28;20211;-71
2023/09/25 07:51:34;;;;;;;1.75;1.30;;;18.90;99.90;;;;;;5037214;28;20291;-71
2023/09/25 07:54:03;;;;;;;1.60;1.50;;;18.90;99.90;;;;;;5036904;28;20200;-72
2023/09/25 07:56:30;;;;;;;2.25;1.73;;;18.90;99.90;;;;;;5039740;28;20226;-71
2023/09/25 07:59:00;;;;;;;1.90;1.23;;;18.90;99.90;;;;;;5001363;28;20291;-71
2023/09/25 08:01:30;;;;;;;1.50;1.40;;;19.00;99.90;;;;;;5037162;28;20695;-71
2023/09/25 08:03:57;;;;;;;3.65;1.55;;;19.20;99.90;;;;;;5038139;28;20224;-71
2023/09/25 08:06:27;;;;;;;1.38;1.27;;;19.20;99.90;;;;;;5038959;28;20300;-71
2023/09/25 08:08:54;;;;;;;1.40;1.30;;;19.10;99.90;;;;;;5040610;28;20253;-71
2023/09/25 08:11:21;;;;;;;1.90;1.40;;;19.40;99.90;;;;;;5035059;28;20726;-72
2023/09/25 08:13:49;;;;;;;2.20;1.40;;;19.40;99.90;;;;;;5008706;28;20278;-71
2023/09/25 08:16:18;;;;;;;1.67;1.40;;;19.20;99.90;;;;;;5036709;28;20277;-71
2023/09/25 08:18:45;;;;;;;2.83;1.50;;;19.00;99.90;;;;;;5024885;28;20272;-71
2023/09/25 08:21:12;;;;;;;1.40;1.30;;;18.90;99.90;;;;;;5036853;28;20284;-71
2023/09/25 08:23:39;;;;;;;1.88;1.40;;;19.10;99.90;;;;;;5038675;28;20199;-71
2023/09/25 08:26:07;;;;;;;1.35;1.25;;;19.20;99.90;;;;;;5039789;28;20224;-71
2023/09/25 08:28:34;;;;;;;1.40;1.30;;;19.20;99.90;;;;;;5042109;28;20241;-71
2023/09/25 08:31:01;;;;;;;1.98;1.60;;;19.60;99.90;;;;;;5037461;28;20615;-71
2023/09/25 08:33:30;;;;;;;1.50;1.40;;;20.00;99.90;;;;;;5035236;28;20205;-72
2023/09/25 08:35:57;;;;;;;2.20;1.70;;;20.20;99.90;;;;;;5040728;28;20671;-71
2023/09/25 08:38:24;;;;;;;1.50;1.40;;;20.40;99.90;;;;;;5029168;28;20289;-71
2023/09/25 08:40:51;;;;;;;1.40;1.30;;;20.30;99.90;;;;;;5041055;28;20700;-72
2023/09/25 08:43:21;;;;;;;2.30;1.30;;;20.40;99.90;;;;;;5041478;28;20923;-71
2023/09/25 08:45:51;;;;;;;1.73;1.40;;;20.50;99.90;;;;;;5038304;28;20223;-71
2023/09/25 08:48:19;;;;;;;2.10;1.00;;;20.50;99.90;;;;;;5035933;28;20199;-72
2023/09/25 08:50:48;;;;;;;1.23;1.13;;;20.40;99.90;;;;;;5035814;28;20198;-71
2023/09/25 08:53:15;;;;;;;1.20;1.20;;;20.10;99.90;;;;;;5040172;28;20297;-72
2023/09/25 08:55:44;;;;;;;2.05;1.10;;;20.30;99.90;;;;;;5037104;28;20630;-72
2023/09/25 08:58:11;;;;;;;1.48;1.33;;;20.20;99.90;;;;;;5036268;28;20211;-72
2023/09/25 09:00:40;;;;;;;1.50;1.40;;;20.10;99.90;;;;;;5035291;28;20206;-71
2023/09/25 09:03:07;;;;;;;1.30;1.20;;;20.10;99.90;;;;;;5037189;28;20265;-72
2023/09/25 09:05:34;;;;;;;1.45;1.15;;;20.30;99.90;;;;;;5018749;28;20301;-72
2023/09/25 09:08:06;;;;;;;1.50;1.40;;;20.30;99.90;;;;;;5015361;28;20212;-71
2023/09/25 09:10:35;;;;;;;2.35;1.27;;;20.50;99.90;;;;;;5034654;28;20210;-71
2023/09/25 09:13:08;;;;;;;2.00;1.30;;;20.70;99.90;;;;;;5035294;28;20258;-71
2023/09/25 09:15:35;;;;;;;1.70;1.08;;;20.70;99.90;;;;;;5041115;28;20225;-72
2023/09/25 09:18:19;;;;;;;1.30;1.20;;;20.50;99.90;;;;;;5041884;28;20203;-72
2023/09/25 09:20:46;;;;;;;1.25;1.15;;;20.80;99.90;;;;;;5020762;28;20209;-72
2023/09/25 09:23:15;;;;;;;1.90;1.15;;;20.80;99.90;;;;;;5037206;28;20552;-72
2023/09/25 09:25:46;;;;;;;1.10;1.00;;;21.10;99.90;;;;;;5040983;28;20210;-71
2023/09/25 09:28:13;;;;;;;1.30;1.20;;;21.30;99.90;;;;;;5037626;28;20199;-71
2023/09/25 09:30:41;;;;;;;2.50;1.30;;;21.00;99.90;;;;;;5034326;28;20203;-71
2023/09/25 09:33:09;;;;;;;1.90;1.17;;;20.80;99.90;;;;;;5033042;28;20203;-71
2023/09/25 09:35:36;;;;;;;1.38;1.27;;;20.60;99.90;;;;;;5039282;28;20223;-71
2023/09/25 09:38:07;;;;;;;2.72;1.40;;;20.60;99.90;;;;;;5020416;28;20348;-72
2023/09/25 09:40:36;;;;;;;2.10;1.40;;;20.70;99.90;;;;;;5034248;28;20688;-72
2023/09/25 09:43:06;;;;;;;1.50;1.40;;;21.00;99.90;;;;;;5036069;28;20199;-71
2023/09/25 09:45:35;;;;;;;2.13;1.20;;;21.30;99.90;;;;;;5021785;28;20257;-72
2023/09/25 09:48:07;;;;;;;2.15;1.50;;;21.40;99.90;;;;;;5033243;28;20260;-72
2023/09/25 09:50:35;;;;;;;3.08;1.33;;;21.40;99.90;;;;;;5032858;28;20286;-72
2023/09/25 09:53:06;;;;;;;2.22;1.40;;;21.40;99.90;;;;;;5042109;28;20206;-71
2023/09/25 09:55:37;;;;;;;1.33;0.98;;;21.40;99.90;;;;;;5040442;28;21536;-72
2023/09/25 09:58:06;;;;;;;1.33;1.20;;;21.30;99.90;;;;;;5032275;28;20199;-71
2023/09/25 10:00:33;;;;;;;1.10;1.00;;;21.30;99.90;;;;;;5032052;28;20209;-72
2023/09/25 10:03:01;;;;;;;2.45;1.42;;;21.50;99.90;;;;;;5033746;28;20199;-72
2023/09/25 10:05:28;;;;;;;1.40;1.30;;;21.40;99.90;;;;;;5037772;28;20231;-72
2023/09/25 10:08:09;;;;;;;1.38;1.23;;;21.70;99.90;;;;;;5037069;28;20202;-72
2023/09/25 10:10:41;;;;;;;3.05;1.30;;;22.10;99.90;;;;;;5035641;28;20747;-72
2023/09/25 10:13:10;;;;;;;2.05;1.40;;;22.30;99.90;;;;;;5033544;28;20199;-72
2023/09/25 10:15:38;;;;;;;2.13;1.13;;;22.40;99.90;;;;;;5036068;28;20786;-72
2023/09/25 10:18:07;;;;;;;0.95;0.95;;;22.40;99.90;;;;;;5037585;28;20207;-72
2023/09/25 10:20:36;;;;;;;1.30;1.20;;;22.50;99.90;;;;;;5036521;28;20213;-72
2023/09/25 10:23:09;;;;;;;1.13;1.10;;;22.60;99.90;;;;;;5033545;28;20195;-71
2023/09/25 10:25:50;;;;;;;1.92;1.27;;;22.70;99.90;;;;;;5014260;28;20954;-72
2023/09/25 10:28:19;;;;;;;1.27;1.17;;;22.50;99.90;;;;;;5020463;28;20679;-72
2023/09/25 10:30:46;;;;;;;1.13;1.00;;;22.20;99.90;;;;;;5036351;28;20256;-72
2023/09/25 10:33:13;;;;;;;2.03;1.33;;;22.10;99.90;;;;;;5034583;28;20200;-71
2023/09/25 10:35:42;;;;;;;1.23;1.17;;;22.10;99.90;;;;;;5017677;28;20219;-71
2023/09/25 10:38:19;;;;;;;1.35;1.25;;;22.30;99.90;;;;;;5032459;28;20265;-72
2023/09/25 10:40:49;;;;;;;1.40;1.23;;;22.40;99.90;;;;;;5033216;28;20285;-72
2023/09/25 10:43:18;;;;;;;2.38;1.95;;;22.60;99.90;;;;;;5032879;28;20199;-72
2023/09/25 10:45:45;;;;;;;1.25;1.00;;;22.60;99.90;;;;;;5032547;28;20215;-72
2023/09/25 10:48:13;;;;;;;1.50;1.40;;;22.70;99.90;;;;;;5036013;28;20227;-71
2023/09/25 10:50:40;;;;;;;1.73;1.60;;;22.70;99.90;;;;;;5032009;28;20206;-72
2023/09/25 10:53:08;;;;;;;1.70;1.38;;;22.50;99.90;;;;;;5034339;28;20209;-72
2023/09/25 10:55:36;;;;;;;1.10;1.05;;;22.50;99.90;;;;;;5035202;28;20251;-72
2023/09/25 10:58:06;;;;;;;1.20;1.08;;;22.50;99.90;;;;;;5035678;28;20211;-71
2023/09/25 11:00:39;;;;;;;2.10;1.20;;;22.70;99.90;;;;;;5017464;28;20214;-71
2023/09/25 11:03:06;;;;;;;1.17;1.13;;;23.00;99.90;;;;;;5032723;28;20203;-71
2023/09/25 11:05:36;;;;;;;1.42;1.30;;;23.00;99.90;;;;;;5021355;28;20588;-72
2023/09/25 11:08:04;;;;;;;1.63;1.20;;;23.00;99.90;;;;;;5032191;28;20357;-73
2023/09/25 11:10:33;;;;;;;1.65;1.23;;;23.10;99.90;;;;;;5033968;28;20207;-72
2023/09/25 11:13:00;;;;;;;1.77;1.45;;;23.20;99.90;;;;;;5033563;28;20710;-72
2023/09/25 11:15:29;;;;;;;1.13;0.98;;;23.30;99.90;;;;;;5033109;28;20326;-72
2023/09/25 11:17:57;;;;;;;1.33;1.25;;;23.40;99.90;;;;;;5031546;28;20719;-72
2023/09/25 11:20:29;;;;;;;1.20;1.10;;;23.40;99.90;;;;;;5033835;28;20210;-72
2023/09/25 11:23:04;;;;;;;2.00;1.08;;;23.40;99.90;;;;;;5033495;28;20200;-72
2023/09/25 11:25:32;;;;;;;1.38;1.27;;;23.40;99.90;;;;;;5036613;28;20241;-72
2023/09/25 11:27:59;;;;;;;1.30;1.20;;;23.40;99.90;;;;;;5020941;28;20203;-73
2023/09/25 11:30:30;;;;;;;1.17;1.08;;;23.20;99.90;;;;;;5039385;28;20677;-72
2023/09/25 11:32:59;;;;;;;1.42;1.33;;;23.50;99.90;;;;;;5034503;28;20203;-72
2023/09/25 11:35:27;;;;;;;1.15;1.08;;;23.40;99.90;;;;;;5035159;28;20228;-72
2023/09/25 11:37:59;;;;;;;2.10;1.20;;;23.30;99.90;;;;;;5037545;28;20308;-72
2023/09/25 11:40:26;;;;;;;1.25;1.00;;;23.30;99.90;;;;;;5034414;28;20299;-73
2023/09/25 11:42:53;;;;;;;1.60;1.25;;;23.30;99.90;;;;;;5039133;28;20215;-72
2023/09/25 11:45:21;;;;;;;1.73;1.40;;;23.20;99.90;;;;;;5023420;28;20329;-72
2023/09/25 11:47:51;;;;;;;2.75;1.30;;;23.10;99.90;;;;;;5036652;28;20191;-72
2023/09/25 11:50:18;;;;;;;1.92;1.00;;;23.10;99.90;;;;;;5024498;28;20231;-72
2023/09/25 11:52:47;;;;;;;1.60;1.10;;;23.20;99.90;;;;;;5036577;28;20207;-73
2023/09/25 11:55:14;;;;;;;2.20;1.10;;;23.50;99.90;;;;;;5038583;28;20611;-72
2023/09/25 11:57:42;;;;;;;2.55;1.20;;;23.70;99.90;;;;;;5035418;28;20221;-72
2023/09/25 12:00:12;;;;;;;1.35;1.25;;;23.80;99.90;;;;;;5036979;28;20210;-72
2023/09/25 12:02:40;;;;;;;0.90;0.85;;;23.80;99.90;;;;;;5002682;28;20191;-72
2023/09/25 12:05:10;;;;;;;0.93;0.90;;;23.90;99.90;;;;;;5037823;28;20210;-72
2023/09/25 12:07:37;;;;;;;1.30;1.10;;;23.90;99.90;;;;;;5032761;28;20665;-73
2023/09/25 12:10:06;;;;;;;0.90;0.90;;;23.80;99.90;;;;;;5034428;28;20228;-72
2023/09/25 12:12:33;;;;;;;1.40;1.20;;;24.00;99.90;;;;;;5035240;28;20199;-74
2023/09/25 12:15:03;;;;;;;1.20;1.10;;;24.00;99.90;;;;;;5029870;28;20217;-72
2023/09/25 12:17:30;;;;;;;1.27;1.17;;;24.00;99.90;;;;;;5033349;28;20293;-72
2023/09/25 12:19:58;;;;;;;1.25;1.20;;;24.10;99.90;;;;;;5021997;28;20234;-72
2023/09/25 12:22:26;;;;;;;1.60;1.15;;;24.20;99.90;;;;;;5035081;28;20900;-72
2023/09/25 12:24:55;;;;;;;1.27;1.17;;;24.20;99.90;;;;;;5021767;28;20207;-72
2023/09/25 12:27:22;;;;;;;1.10;1.00;;;24.10;99.90;;;;;;5039996;28;20198;-72
2023/09/25 12:29:49;;;;;;;1.20;1.10;;;24.00;99.90;;;;;;5026461;28;20226;-72
2023/09/25 12:32:16;;;;;;;2.47;1.23;;;23.80;99.90;;;;;;5035451;28;20566;-72
2023/09/25 12:34:43;;;;;;;2.08;0.93;;;23.60;99.90;;;;;;5036977;28;20207;-72
2023/09/25 12:37:11;;;;;;;1.45;1.35;;;23.50;99.90;;;;;;5038114;28;20227;-73
2023/09/25 12:39:40;;;;;;;2.67;0.90;;;23.60;99.90;;;;;;5036379;28;20204;-72
2023/09/25 12:42:07;;;;;;;1.23;0.90;;;23.90;99.90;;;;;;5035355;28;20203;-72
2023/09/25 12:44:36;;;;;;;1.10;1.00;;;23.80;99.90;;;;;;5022286;28;20854;-72
2023/09/25 12:47:03;;;;;;;1.80;1.10;;;23.80;99.90;;;;;;5036897;28;20285;-72
2023/09/25 12:49:30;;;;;;;1.17;1.05;;;23.70;99.90;;;;;;5037975;28;20849;-72
2023/09/25 12:51:57;;;;;;;1.33;1.23;;;23.80;99.90;;;;;;5034230;28;20199;-71